createdAt,value
2022-11-08T00:01:13.276Z,11.40
2022-11-08T00:03:42.136Z,11.30
2022-11-08T00:06:29.836Z,11.20
2022-11-08T00:09:15.937Z,10.90
2022-11-08T00:12:01.889Z,10.80
2022-11-08T00:14:30.671Z,10.90
2022-11-08T00:16:59.460Z,11.20
2022-11-08T00:19:28.477Z,11.00
2022-11-08T00:21:58.877Z,10.70
2022-11-08T00:24:28.008Z,10.60
2022-11-08T00:26:56.797Z,10.90
2022-11-08T00:29:25.583Z,10.80
2022-11-08T00:31:54.369Z,11.10
2022-11-08T00:34:23.250Z,11.40
2022-11-08T00:36:53.785Z,11.30
2022-11-08T00:39:24.079Z,11.20
2022-11-08T00:41:53.008Z,11.00
2022-11-08T00:44:22.348Z,11.10
2022-11-08T00:46:51.364Z,10.70
2022-11-08T00:49:20.460Z,10.60
2022-11-08T00:51:49.305Z,10.60
2022-11-08T00:54:20.933Z,10.70
2022-11-08T00:56:51.429Z,10.80
2022-11-08T00:59:21.638Z,10.80
2022-11-08T01:01:50.620Z,10.90
2022-11-08T01:04:20.775Z,11.00
2022-11-08T01:06:49.611Z,10.60
2022-11-08T01:09:18.442Z,10.50
2022-11-08T01:11:48.051Z,10.60
2022-11-08T01:14:19.439Z,10.80
2022-11-08T01:16:48.267Z,10.80
2022-11-08T01:19:17.089Z,10.80
2022-11-08T01:21:45.942Z,11.00
2022-11-08T01:24:14.836Z,11.00
2022-11-08T01:26:43.741Z,10.90
2022-11-08T01:29:12.608Z,10.90
2022-11-08T01:31:42.920Z,10.80
2022-11-08T01:34:11.748Z,10.70
2022-11-08T01:36:40.657Z,10.70
2022-11-08T01:39:09.868Z,10.90
2022-11-08T01:41:40.134Z,10.60
2022-11-08T01:44:17.626Z,10.60
2022-11-08T01:46:49.799Z,10.90
2022-11-08T01:49:36.896Z,10.70
2022-11-08T01:52:29.187Z,10.70
2022-11-08T01:55:06.398Z,10.70
2022-11-08T01:57:41.523Z,10.70
2022-11-08T02:00:12.968Z,10.40
2022-11-08T02:02:45.748Z,10.40
2022-11-08T02:05:27.057Z,10.40
2022-11-08T02:08:00.415Z,10.10
2022-11-08T02:10:35.988Z,10.30
2022-11-08T02:13:08.591Z,10.40
2022-11-08T02:15:39.677Z,10.30
2022-11-08T02:18:10.061Z,10.50
2022-11-08T02:20:39.026Z,10.60
2022-11-08T02:23:18.679Z,10.80
2022-11-08T02:25:49.061Z,10.70
2022-11-08T02:28:18.362Z,10.60
2022-11-08T02:30:47.502Z,10.70
2022-11-08T02:33:17.809Z,10.90
2022-11-08T02:35:50.812Z,10.80
2022-11-08T02:38:20.413Z,10.60
2022-11-08T02:40:52.852Z,10.60
2022-11-08T02:43:22.184Z,10.20
2022-11-08T02:45:51.820Z,10.20
2022-11-08T02:48:21.799Z,9.80
2022-11-08T02:50:50.739Z,9.60
2022-11-08T02:53:19.959Z,9.70
2022-11-08T02:55:48.848Z,9.90
2022-11-08T02:58:19.468Z,10.00
2022-11-08T03:00:48.638Z,10.00
2022-11-08T03:03:17.407Z,9.90
2022-11-08T03:05:47.759Z,9.90
2022-11-08T03:08:17.143Z,9.70
2022-11-08T03:10:46.211Z,9.70
2022-11-08T03:13:15.153Z,9.80
2022-11-08T03:15:45.426Z,9.80
2022-11-08T03:18:14.458Z,9.80
2022-11-08T03:20:43.473Z,10.10
2022-11-08T03:23:12.472Z,9.90
2022-11-08T03:25:41.528Z,9.90
2022-11-08T03:28:11.227Z,9.90
2022-11-08T03:30:40.009Z,10.00
2022-11-08T03:33:10.711Z,10.30
2022-11-08T03:35:39.650Z,10.20
2022-11-08T03:38:08.808Z,9.90
2022-11-08T03:40:37.632Z,10.00
2022-11-08T03:43:24.748Z,9.70
2022-11-08T03:45:53.583Z,9.80
2022-11-08T03:48:24.032Z,9.60
2022-11-08T03:50:53.148Z,9.20
2022-11-08T03:53:21.991Z,9.00
2022-11-08T03:55:50.851Z,8.90
2022-11-08T03:58:20.007Z,9.10
2022-11-08T04:00:49.153Z,9.40
2022-11-08T04:03:18.031Z,9.30
2022-11-08T04:05:48.531Z,9.40
2022-11-08T04:08:17.716Z,9.40
2022-11-08T04:10:46.810Z,9.70
2022-11-08T04:13:32.370Z,9.40
2022-11-08T04:16:01.276Z,9.30
2022-11-08T04:18:47.321Z,9.40
2022-11-08T04:21:23.132Z,9.50
2022-11-08T04:23:53.793Z,9.70
2022-11-08T04:26:23.736Z,10.10
2022-11-08T04:29:11.171Z,9.50
2022-11-08T04:31:40.449Z,9.50
2022-11-08T04:34:09.312Z,9.50
2022-11-08T04:36:39.610Z,9.50
2022-11-08T04:39:26.848Z,9.50
2022-11-08T04:42:01.697Z,9.10
2022-11-08T04:44:31.225Z,9.30
2022-11-08T04:47:00.105Z,9.10
2022-11-08T04:49:28.988Z,9.50
2022-11-08T04:52:17.708Z,9.50
2022-11-08T04:54:46.656Z,9.30
2022-11-08T04:57:16.447Z,8.80
2022-11-08T04:59:45.310Z,9.00
2022-11-08T05:02:14.228Z,8.70
2022-11-08T05:04:43.171Z,9.00
2022-11-08T05:07:13.427Z,8.90
2022-11-08T05:09:42.292Z,8.80
2022-11-08T05:12:11.069Z,8.50
2022-11-08T05:14:39.947Z,8.60
2022-11-08T05:17:08.830Z,8.70
2022-11-08T05:20:13.169Z,8.70
2022-11-08T05:23:01.030Z,9.00
2022-11-08T05:25:29.975Z,8.90
2022-11-08T05:27:58.933Z,8.80
2022-11-08T05:30:27.768Z,8.70
2022-11-08T05:32:56.510Z,8.60
2022-11-08T05:35:25.308Z,8.60
2022-11-08T05:37:55.538Z,8.50
2022-11-08T05:40:25.591Z,8.60
2022-11-08T05:42:57.328Z,8.10
2022-11-08T05:45:26.195Z,8.20
2022-11-08T05:47:54.966Z,8.40
2022-11-08T05:50:23.879Z,8.50
2022-11-08T05:52:57.104Z,8.40
2022-11-08T05:55:25.990Z,8.50
2022-11-08T05:57:54.762Z,8.90
2022-11-08T06:00:24.044Z,9.10
2022-11-08T06:02:52.948Z,9.20
2022-11-08T06:05:21.870Z,9.20
2022-11-08T06:07:50.678Z,8.80
2022-11-08T06:10:20.918Z,8.80
2022-11-08T06:12:49.876Z,8.70
2022-11-08T06:15:18.736Z,8.70
2022-11-08T06:17:47.483Z,8.90
2022-11-08T06:20:34.971Z,9.20
2022-11-08T06:23:03.812Z,9.20
2022-11-08T06:25:52.610Z,8.80
2022-11-08T06:28:40.006Z,8.90
2022-11-08T06:31:09.121Z,9.10
2022-11-08T06:33:37.907Z,9.30
2022-11-08T06:36:08.446Z,9.50
2022-11-08T06:38:37.370Z,9.50
2022-11-08T06:41:07.691Z,9.60
2022-11-08T06:43:55.792Z,9.60
2022-11-08T06:46:42.927Z,9.60
2022-11-08T06:49:30.535Z,9.80
2022-11-08T06:51:59.365Z,9.70
2022-11-08T06:54:46.833Z,9.80
2022-11-08T06:57:17.069Z,9.90
2022-11-08T06:59:45.850Z,9.30
2022-11-08T07:02:14.745Z,9.40
2022-11-08T07:04:43.704Z,9.50
2022-11-08T07:07:12.538Z,9.60
2022-11-08T07:09:41.362Z,9.50
2022-11-08T07:12:10.226Z,9.70
2022-11-08T07:14:40.426Z,9.70
2022-11-08T07:17:09.149Z,9.80
2022-11-08T07:19:37.986Z,9.60
2022-11-08T07:22:06.694Z,9.60
2022-11-08T07:24:36.081Z,9.70
2022-11-08T07:27:04.963Z,9.80
2022-11-08T07:29:33.744Z,9.80
2022-11-08T07:32:03.934Z,9.90
2022-11-08T07:34:33.365Z,10.10
2022-11-08T07:37:02.125Z,10.20
2022-11-08T07:39:30.904Z,10.30
2022-11-08T07:41:59.812Z,10.40
2022-11-08T07:44:49.681Z,10.70
2022-11-08T07:47:20.054Z,10.60
2022-11-08T07:49:48.806Z,10.80
2022-11-08T07:52:17.684Z,10.70
2022-11-08T07:54:46.528Z,10.80
2022-11-08T07:57:33.561Z,10.70
2022-11-08T08:00:06.455Z,10.60
2022-11-08T08:02:42.240Z,10.80
2022-11-08T08:05:11.562Z,10.70
2022-11-08T08:07:59.005Z,10.80
2022-11-08T08:10:28.436Z,10.70
2022-11-08T08:12:57.858Z,10.60
2022-11-08T08:15:27.894Z,10.60
2022-11-08T08:18:00.654Z,10.70
2022-11-08T08:20:30.163Z,10.70
2022-11-08T08:22:59.561Z,10.70
2022-11-08T08:25:31.149Z,10.80
2022-11-08T08:28:18.168Z,10.90
2022-11-08T08:30:46.941Z,11.10
2022-11-08T08:33:34.734Z,11.20
2022-11-08T08:36:04.125Z,11.30
2022-11-08T08:38:33.496Z,11.40
2022-11-08T08:41:03.562Z,11.60
2022-11-08T08:43:33.684Z,11.90
2022-11-08T08:46:03.247Z,12.30
2022-11-08T08:48:33.965Z,12.60
2022-11-08T08:51:02.750Z,12.60
2022-11-08T08:53:31.518Z,12.80
2022-11-08T08:56:02.525Z,13.00
2022-11-08T08:58:31.324Z,13.30
2022-11-08T09:03:53.495Z,13.80
2022-11-08T09:06:40.925Z,13.80
2022-11-08T09:09:28.318Z,14.00
2022-11-08T09:11:57.129Z,14.00
2022-11-08T09:14:25.855Z,14.10
2022-11-08T09:16:54.964Z,14.00
2022-11-08T09:19:25.595Z,14.30
2022-11-08T09:21:54.719Z,14.10
2022-11-08T09:24:24.116Z,14.20
2022-11-08T09:26:53.233Z,14.40
2022-11-08T09:29:22.455Z,14.80
2022-11-08T09:31:51.434Z,14.90
2022-11-08T09:34:21.742Z,14.90
2022-11-08T09:36:52.625Z,15.10
2022-11-08T09:39:22.047Z,15.10
2022-11-08T09:42:13.660Z,14.80
2022-11-08T09:45:10.379Z,14.80
2022-11-08T09:48:04.867Z,15.10
2022-11-08T09:50:39.971Z,15.60
2022-11-08T09:53:18.896Z,15.70
2022-11-08T09:55:53.924Z,15.70
2022-11-08T09:58:31.999Z,15.40
2022-11-08T10:01:03.926Z,15.50
2022-11-08T10:03:58.012Z,15.60
2022-11-08T10:06:40.501Z,15.60
2022-11-08T10:09:23.793Z,15.70
2022-11-08T10:12:16.123Z,15.90
2022-11-08T10:14:58.873Z,15.80
2022-11-08T10:17:47.814Z,16.10
2022-11-08T10:20:27.158Z,16.00
2022-11-08T10:23:21.642Z,15.80
2022-11-08T10:25:57.298Z,16.10
2022-11-08T10:28:32.759Z,15.80
2022-11-08T10:31:22.041Z,16.80
2022-11-08T10:33:54.531Z,16.80
2022-11-08T10:36:29.029Z,16.60
2022-11-08T10:39:04.500Z,16.80
2022-11-08T10:41:42.324Z,16.40
2022-11-08T10:44:16.061Z,19.00
2022-11-08T10:47:04.374Z,17.40
2022-11-08T10:49:57.227Z,18.00
2022-11-08T10:52:38.541Z,18.40
2022-11-08T10:55:08.973Z,18.40
2022-11-08T10:57:44.334Z,18.50
2022-11-08T11:00:28.852Z,18.40
2022-11-08T11:03:00.321Z,18.50
2022-11-08T11:05:34.331Z,18.70
2022-11-08T11:08:06.679Z,18.90
2022-11-08T11:10:37.141Z,18.90
2022-11-08T11:13:12.059Z,19.10
2022-11-08T11:15:47.898Z,18.70
2022-11-08T11:18:29.686Z,19.90
2022-11-08T11:21:11.149Z,19.80
2022-11-08T11:23:44.650Z,19.00
2022-11-08T11:26:32.410Z,18.40
2022-11-08T11:29:18.149Z,17.40
2022-11-08T11:31:48.618Z,16.80
2022-11-08T11:34:33.470Z,16.80
2022-11-08T11:37:08.638Z,17.20
2022-11-08T11:40:08.724Z,17.60
2022-11-08T11:42:47.032Z,18.20
2022-11-08T11:45:22.889Z,18.70
2022-11-08T11:47:54.817Z,18.90
2022-11-08T11:50:32.626Z,19.30
2022-11-08T11:53:21.878Z,19.70
2022-11-08T11:56:14.526Z,19.80
2022-11-08T11:59:02.419Z,20.10
2022-11-08T12:01:48.511Z,19.70
2022-11-08T12:04:41.730Z,19.10
2022-11-08T12:07:15.861Z,19.80
2022-11-08T12:10:02.088Z,20.70
2022-11-08T12:12:57.270Z,20.50
2022-11-08T12:15:32.189Z,20.00
2022-11-08T12:18:42.544Z,20.10
2022-11-08T12:21:16.121Z,19.80
2022-11-08T12:24:26.732Z,18.90
2022-11-08T12:27:01.952Z,18.90
2022-11-08T12:29:38.373Z,20.00
2022-11-08T12:32:24.222Z,20.40
2022-11-08T12:35:21.172Z,20.70
2022-11-08T12:38:23.820Z,20.40
2022-11-08T12:41:01.470Z,21.20
2022-11-08T12:43:58.253Z,21.10
2022-11-08T12:46:30.521Z,20.60
2022-11-08T12:49:23.844Z,19.30
2022-11-08T12:52:07.091Z,18.90
2022-11-08T12:54:40.678Z,18.70
2022-11-08T12:57:14.624Z,19.80
2022-11-08T12:59:47.149Z,20.40
2022-11-08T13:02:21.632Z,20.60
2022-11-08T13:04:59.471Z,20.10
2022-11-08T13:07:43.573Z,20.50
2022-11-08T13:10:23.401Z,20.70
2022-11-08T13:13:09.192Z,20.70
2022-11-08T13:15:38.286Z,20.40
2022-11-08T13:18:38.062Z,20.10
2022-11-08T13:21:38.473Z,20.50
2022-11-08T13:24:44.322Z,21.30
2022-11-08T13:27:33.039Z,22.10
2022-11-08T13:30:23.517Z,22.20
2022-11-08T13:32:56.628Z,21.60
2022-11-08T13:35:34.647Z,21.80
2022-11-08T13:38:18.054Z,21.60
2022-11-08T13:41:10.723Z,22.50
2022-11-08T13:43:40.211Z,22.60
2022-11-08T13:46:47.949Z,22.70
2022-11-08T13:49:24.541Z,22.00
2022-11-08T13:52:32.082Z,22.10
2022-11-08T13:55:01.360Z,22.00
2022-11-08T13:58:07.778Z,22.40
2022-11-08T14:00:46.910Z,22.50
2022-11-08T14:03:53.151Z,22.60
2022-11-08T14:06:30.427Z,21.10
2022-11-08T14:09:08.274Z,21.80
2022-11-08T14:11:47.798Z,21.50
2022-11-08T14:14:43.349Z,20.80
2022-11-08T14:17:36.258Z,19.50
2022-11-08T14:20:38.383Z,19.00
2022-11-08T14:23:22.683Z,20.50
2022-11-08T14:25:56.136Z,21.20
2022-11-08T14:28:27.882Z,22.00
2022-11-08T14:30:58.894Z,22.30
2022-11-08T14:33:49.886Z,21.80
2022-11-08T14:36:21.951Z,20.70
2022-11-08T14:38:54.348Z,20.50
2022-11-08T14:41:27.677Z,20.00
2022-11-08T14:43:59.138Z,19.30
2022-11-08T14:46:32.377Z,19.00
2022-11-08T14:49:11.646Z,19.00
2022-11-08T14:51:41.316Z,18.40
2022-11-08T14:54:18.000Z,17.90
2022-11-08T14:56:48.424Z,17.90
2022-11-08T14:59:17.563Z,17.80
2022-11-08T15:01:50.219Z,17.80
2022-11-08T15:04:41.895Z,18.00
2022-11-08T15:07:11.371Z,18.20
2022-11-08T15:09:41.108Z,18.80
2022-11-08T15:12:33.989Z,19.30
2022-11-08T15:15:03.686Z,19.60
2022-11-08T15:17:36.606Z,20.00
2022-11-08T15:20:22.321Z,19.80
2022-11-08T15:22:56.337Z,19.10
2022-11-08T15:25:49.151Z,18.60
2022-11-08T15:28:22.757Z,18.00
2022-11-08T15:30:57.773Z,17.50
2022-11-08T15:33:29.132Z,17.20
2022-11-08T15:36:24.837Z,17.20
2022-11-08T15:38:54.070Z,17.00
2022-11-08T15:41:37.551Z,16.90
2022-11-08T15:44:19.727Z,16.70
2022-11-08T15:46:48.928Z,16.60
2022-11-08T15:49:21.912Z,16.50
2022-11-08T15:51:54.340Z,16.50
2022-11-08T15:54:25.733Z,16.30
2022-11-08T15:56:57.486Z,16.30
2022-11-08T15:59:31.342Z,16.30
2022-11-08T16:02:03.310Z,16.20
2022-11-08T16:04:32.524Z,16.10
2022-11-08T16:07:03.377Z,16.10
2022-11-08T16:09:33.087Z,16.00
2022-11-08T16:12:04.117Z,15.90
2022-11-08T16:14:33.696Z,15.60
2022-11-08T16:17:03.780Z,15.30
2022-11-08T16:19:51.862Z,15.40
2022-11-08T16:22:25.407Z,15.30
2022-11-08T16:24:56.565Z,15.10
2022-11-08T16:27:44.136Z,15.20
2022-11-08T16:30:17.305Z,15.30
2022-11-08T16:32:46.392Z,15.20
2022-11-08T16:35:15.991Z,15.20
2022-11-08T16:37:47.668Z,15.10
2022-11-08T16:40:21.854Z,15.10
2022-11-08T16:42:52.969Z,15.00
2022-11-08T16:45:43.524Z,15.00
2022-11-08T16:48:17.820Z,14.80
2022-11-08T16:50:47.542Z,14.60
2022-11-08T16:53:36.963Z,14.60
2022-11-08T16:56:06.171Z,14.60
2022-11-08T16:58:37.860Z,14.50
2022-11-08T17:01:29.867Z,14.40
2022-11-08T17:03:59.215Z,14.40
2022-11-08T17:06:29.810Z,14.30
2022-11-08T17:09:00.419Z,14.20
2022-11-08T17:11:29.669Z,14.30
2022-11-08T17:13:58.680Z,14.20
2022-11-08T17:16:29.999Z,14.10
2022-11-08T17:18:59.217Z,14.10
2022-11-08T17:21:45.475Z,14.30
2022-11-08T17:24:21.548Z,14.00
2022-11-08T17:26:53.754Z,13.80
2022-11-08T17:29:22.948Z,13.80
2022-11-08T17:31:52.485Z,13.70
2022-11-08T17:34:21.758Z,13.90
2022-11-08T17:36:52.872Z,13.30
2022-11-08T17:39:26.069Z,13.30
2022-11-08T17:42:13.138Z,13.20
2022-11-08T17:44:42.373Z,13.10
2022-11-08T17:47:11.348Z,13.10
2022-11-08T17:49:43.895Z,13.00
2022-11-08T17:52:13.423Z,13.00
2022-11-08T17:54:47.864Z,12.90
2022-11-08T17:57:19.494Z,13.20
2022-11-08T17:59:48.456Z,12.90
2022-11-08T18:02:17.520Z,12.60
2022-11-08T18:04:46.715Z,12.80
2022-11-08T18:07:33.994Z,12.80
2022-11-08T18:10:04.923Z,12.70
2022-11-08T18:12:33.937Z,12.70
2022-11-08T18:15:02.613Z,12.80
2022-11-08T18:17:31.473Z,13.00
2022-11-08T18:20:00.238Z,12.80
2022-11-08T18:22:29.093Z,12.60
2022-11-08T18:24:57.931Z,12.90
2022-11-08T18:27:28.236Z,12.80
2022-11-08T18:30:16.169Z,12.70
2022-11-08T18:32:45.354Z,12.60
2022-11-08T18:35:16.359Z,12.70
2022-11-08T18:37:45.797Z,12.90
2022-11-08T18:40:14.597Z,12.90
2022-11-08T18:42:45.007Z,12.80
2022-11-08T18:45:13.885Z,12.70
2022-11-08T18:48:01.257Z,12.90
2022-11-08T18:50:30.147Z,12.80
2022-11-08T18:53:03.328Z,12.80
2022-11-08T18:55:35.214Z,12.90
2022-11-08T18:58:05.476Z,12.90
2022-11-08T19:00:34.297Z,12.90
2022-11-08T19:03:03.424Z,12.80
2022-11-08T19:05:32.227Z,12.90
2022-11-08T19:08:01.265Z,12.80
2022-11-08T19:10:30.186Z,12.80
2022-11-08T19:12:58.926Z,12.50
2022-11-08T19:15:29.195Z,12.50
2022-11-08T19:17:58.283Z,12.50
2022-11-08T19:20:27.065Z,12.50
2022-11-08T19:22:56.137Z,12.30
2022-11-08T19:25:24.894Z,12.30
2022-11-08T19:27:55.613Z,12.10
2022-11-08T19:30:28.711Z,12.20
2022-11-08T19:32:57.538Z,12.50
2022-11-08T19:35:26.401Z,12.60
2022-11-08T19:37:55.384Z,12.30
2022-11-08T19:40:31.895Z,12.20
2022-11-08T19:43:03.337Z,14.40
2022-11-08T19:45:33.592Z,12.30
2022-11-08T19:48:02.373Z,12.40
2022-11-08T19:50:31.256Z,12.30
2022-11-08T19:53:06.618Z,11.90
2022-11-08T19:55:36.362Z,12.00
2022-11-08T19:58:05.329Z,12.30
2022-11-08T20:00:35.758Z,12.40
2022-11-08T20:03:04.641Z,12.10
2022-11-08T20:05:33.552Z,12.10
2022-11-08T20:08:06.158Z,12.00
2022-11-08T20:10:35.031Z,11.80
2022-11-08T20:13:03.807Z,12.00
2022-11-08T20:15:32.724Z,11.90
2022-11-08T20:18:21.743Z,11.80
2022-11-08T20:20:50.630Z,12.10
2022-11-08T20:23:19.440Z,12.10
2022-11-08T20:25:49.605Z,12.00
2022-11-08T20:28:19.903Z,11.90
2022-11-08T20:30:48.867Z,11.90
2022-11-08T20:33:17.956Z,11.70
2022-11-08T20:36:06.808Z,11.70
2022-11-08T20:38:37.148Z,11.70
2022-11-08T20:41:07.796Z,11.90
2022-11-08T20:43:55.239Z,11.50
2022-11-08T20:46:25.738Z,11.70
2022-11-08T20:49:00.899Z,11.70
2022-11-08T20:51:32.647Z,11.60
2022-11-08T20:54:01.975Z,11.50
2022-11-08T20:56:49.586Z,11.70
2022-11-08T20:59:18.628Z,11.90
2022-11-08T21:01:47.678Z,11.60
2022-11-08T21:04:16.687Z,11.80
2022-11-08T21:06:46.908Z,11.90
2022-11-08T21:09:36.760Z,11.70
2022-11-08T21:12:04.731Z,11.70
2022-11-08T21:14:33.530Z,11.60
2022-11-08T21:19:51.157Z,11.60
2022-11-08T21:22:21.468Z,11.70
2022-11-08T21:24:50.391Z,11.80
2022-11-08T21:27:19.418Z,11.70
2022-11-08T21:29:48.145Z,11.40
2022-11-08T21:32:16.856Z,11.30
2022-11-08T21:34:47.356Z,11.30
2022-11-08T21:37:53.145Z,11.70
2022-11-08T21:40:23.436Z,11.50
2022-11-08T21:42:52.245Z,11.60
2022-11-08T21:45:21.029Z,11.50
2022-11-08T21:47:51.505Z,11.60
2022-11-08T21:50:21.186Z,11.70
2022-11-08T21:52:50.704Z,11.60
2022-11-08T21:55:19.987Z,11.60
2022-11-08T21:57:50.205Z,11.70
2022-11-08T22:00:19.525Z,11.60
2022-11-08T22:02:48.273Z,11.40
2022-11-08T22:05:17.286Z,11.30
2022-11-08T22:07:46.007Z,11.40
2022-11-08T22:10:14.974Z,11.30
2022-11-08T22:12:43.745Z,11.30
2022-11-08T22:15:32.674Z,11.60
2022-11-08T22:18:14.949Z,11.80
2022-11-08T22:21:25.429Z,11.70
2022-11-08T22:23:54.224Z,11.60
2022-11-08T22:26:42.012Z,11.50
2022-11-08T22:29:13.827Z,11.60
2022-11-08T22:32:02.472Z,11.60
2022-11-08T22:34:31.275Z,11.50
2022-11-08T22:36:59.978Z,11.20
2022-11-08T22:39:28.710Z,11.10
2022-11-08T22:41:57.527Z,11.40
2022-11-08T22:44:26.248Z,11.20
2022-11-08T22:46:54.961Z,11.10
2022-11-08T22:49:25.295Z,11.30
2022-11-08T22:51:54.006Z,11.50
2022-11-08T22:54:22.825Z,11.60
2022-11-08T22:56:51.523Z,11.70
2022-11-08T22:59:38.651Z,11.60
2022-11-08T23:02:09.561Z,11.70
2022-11-08T23:04:39.718Z,11.30
2022-11-08T23:07:09.608Z,11.10
2022-11-08T23:09:38.421Z,11.30
2022-11-08T23:13:01.753Z,11.30
2022-11-08T23:15:50.354Z,11.40
2022-11-08T23:18:19.099Z,11.40
2022-11-08T23:21:07.110Z,11.30
2022-11-08T23:23:53.488Z,11.30
2022-11-08T23:26:44.147Z,11.50
2022-11-08T23:29:30.708Z,11.20
2022-11-08T23:31:59.726Z,11.20
2022-11-08T23:34:28.408Z,10.90
2022-11-08T23:36:58.649Z,10.90
2022-11-08T23:39:27.414Z,11.00
2022-11-08T23:42:13.764Z,11.00
2022-11-08T23:44:42.515Z,10.90
2022-11-08T23:47:29.928Z,10.70
2022-11-08T23:49:58.700Z,10.90
2022-11-08T23:52:28.843Z,10.90
2022-11-08T23:54:57.635Z,10.80
2022-11-08T23:57:26.439Z,10.90
2022-11-08T23:59:55.273Z,10.90
